Time;durP1;ratioP1;P1;durP2;ratioP2;P2;SDS_P1;SDS_P2;PMS_P1;PMS_P2;Temp;Humidity;BMP_temperature;BMP_pressure;BME280_temperature;BME280_humidity;BME280_pressure;Samples;Min_cycle;Max_cycle;Signal;HPM_P1;HPM_P2
2022/11/02 00:00:40;;;;;;;25.17;8.93;;;10.10;99.90;;;;;;5055466;28;20228;-79
2022/11/02 00:03:05;;;;;;;28.50;8.93;;;10.10;99.90;;;;;;5055527;28;20203;-79
2022/11/02 00:05:31;;;;;;;35.17;10.23;;;;;;;;;;5055087;28;20180;-79
2022/11/02 00:07:57;;;;;;;27.20;9.63;;;10.00;99.90;;;;;;5055471;28;20188;-79
2022/11/02 00:10:24;;;;;;;20.60;8.37;;;10.00;99.90;;;;;;5037574;28;20283;-79
2022/11/02 00:12:51;;;;;;;28.03;10.63;;;10.10;99.90;;;;;;5055368;28;20179;-79
2022/11/02 00:15:17;;;;;;;32.47;11.13;;;10.10;99.90;;;;;;5055039;28;20270;-79
2022/11/02 00:17:46;;;;;;;22.20;9.87;;;10.10;99.90;;;;;;5037315;28;20279;-79
2022/11/02 00:20:14;;;;;;;27.60;9.67;;;10.10;99.90;;;;;;5055362;28;20239;-79
2022/11/02 00:22:41;;;;;;;29.47;10.10;;;10.00;99.90;;;;;;5055173;28;20180;-79
2022/11/02 00:25:11;;;;;;;23.83;9.30;;;10.00;99.90;;;;;;5054868;28;20198;-79
2022/11/02 00:27:39;;;;;;;30.53;10.43;;;10.00;99.90;;;;;;5037199;28;20222;-79
2022/11/02 00:30:05;;;;;;;24.27;9.90;;;10.10;99.90;;;;;;5054903;28;20259;-79
2022/11/02 00:32:30;;;;;;;31.20;11.07;;;10.10;99.90;;;;;;5054992;28;20180;-79
2022/11/02 00:34:56;;;;;;;25.93;11.03;;;10.00;99.90;;;;;;5037191;28;20184;-79
2022/11/02 00:37:22;;;;;;;22.87;11.13;;;10.10;99.90;;;;;;5037168;28;20194;-79
2022/11/02 00:39:48;;;;;;;22.77;9.37;;;10.10;99.90;;;;;;5054712;28;20211;-79
2022/11/02 00:42:14;;;;;;;28.17;10.20;;;10.10;99.90;;;;;;5055194;28;20682;-79
2022/11/02 00:44:40;;;;;;;28.27;11.10;;;10.00;99.90;;;;;;5054404;28;20183;-79
2022/11/02 00:47:06;;;;;;;31.70;10.17;;;10.00;99.90;;;;;;5054998;28;20255;-79
2022/11/02 00:49:32;;;;;;;27.00;11.83;;;;;;;;;;5036889;28;20182;-79
2022/11/02 00:51:57;;;;;;;23.20;10.13;;;10.10;99.90;;;;;;5054714;28;20636;-79
2022/11/02 00:54:23;;;;;;;26.83;10.73;;;;;;;;;;5036620;28;20235;-79
2022/11/02 00:56:49;;;;;;;29.33;10.80;;;10.10;99.90;;;;;;5054482;28;20188;-79
2022/11/02 00:59:15;;;;;;;32.37;12.27;;;;;;;;;;5054703;28;20230;-79
2022/11/02 01:01:46;;;;;;;20.47;9.47;;;10.20;99.90;;;;;;5054255;28;20206;-79
2022/11/02 01:04:13;;;;;;;36.03;9.87;;;10.20;99.90;;;;;;5054726;28;20179;-79
2022/11/02 01:06:39;;;;;;;21.13;9.67;;;10.20;99.90;;;;;;5054264;28;20188;-79
2022/11/02 01:09:04;;;;;;;32.50;11.67;;;10.20;99.90;;;;;;5036550;28;20615;-79
2022/11/02 01:11:30;;;;;;;26.03;10.57;;;10.20;99.90;;;;;;5036603;28;20279;-79
2022/11/02 01:13:56;;;;;;;24.47;10.17;;;10.30;99.90;;;;;;5036340;28;20616;-79
2022/11/02 01:16:21;;;;;;;26.40;12.87;;;10.30;99.90;;;;;;5054293;28;20671;-79
2022/11/02 01:18:52;;;;;;;34.07;11.03;;;10.30;99.90;;;;;;5054142;28;20218;-79
2022/11/02 01:21:17;;;;;;;30.50;11.20;;;10.30;99.90;;;;;;5054340;28;20663;-79
2022/11/02 01:23:45;;;;;;;27.77;9.70;;;10.30;99.90;;;;;;5054014;28;20196;-79
2022/11/02 01:26:10;;;;;;;28.30;11.50;;;10.40;99.90;;;;;;5054353;28;20180;-80
2022/11/02 01:28:38;;;;;;;24.80;11.33;;;10.30;99.90;;;;;;5053899;28;20624;-79
2022/11/02 01:31:04;;;;;;;27.60;11.07;;;10.40;99.90;;;;;;5054027;28;20187;-79
2022/11/02 01:33:29;;;;;;;35.57;11.77;;;10.40;99.90;;;;;;5053823;28;20180;-80
2022/11/02 01:35:55;;;;;;;31.20;11.37;;;10.40;99.90;;;;;;5053810;28;20672;-80
2022/11/02 01:38:21;;;;;;;25.90;10.47;;;10.40;99.90;;;;;;5053717;28;20617;-79
2022/11/02 01:40:47;;;;;;;30.00;10.83;;;10.40;99.90;;;;;;5053652;28;20207;-80
2022/11/02 01:43:34;;;;;;;32.40;13.40;;;10.40;99.90;;;;;;5054046;28;20188;-79
2022/11/02 01:46:01;;;;;;;31.00;11.70;;;10.50;99.90;;;;;;5071971;28;20164;-79
2022/11/02 01:48:51;;;;;;;30.07;12.30;;;10.40;99.90;;;;;;5075697;28;20239;-79
2022/11/02 01:51:50;;;;;;;24.63;10.93;;;10.40;99.90;;;;;;5075621;28;20195;-80
2022/11/02 01:54:21;;;;;;;25.13;9.67;;;10.50;99.90;;;;;;5055546;28;20239;-79
2022/11/02 01:56:52;;;;;;;30.83;10.93;;;10.40;99.90;;;;;;5053477;28;20234;-79
2022/11/02 01:59:28;;;;;;;33.57;10.60;;;10.50;99.90;;;;;;5056860;28;20160;-78
2022/11/02 02:01:53;;;;;;;31.00;10.07;;;10.40;99.90;;;;;;5072495;28;20211;-77
2022/11/02 02:04:21;;;;;;;27.37;11.67;;;10.50;99.90;;;;;;5069789;28;20175;-80
2022/11/02 02:06:48;;;;;;;28.50;11.20;;;10.40;99.90;;;;;;5071308;28;20222;-78
2022/11/02 02:09:15;;;;;;;27.10;9.57;;;10.50;99.90;;;;;;5053845;28;20267;-79
2022/11/02 02:11:40;;;;;;;25.90;9.80;;;10.50;99.90;;;;;;5053764;28;20671;-79
2022/11/02 02:14:14;;;;;;;29.13;11.37;;;10.50;99.90;;;;;;5053938;28;20184;-79
2022/11/02 02:16:58;;;;;;;32.70;11.43;;;10.50;99.90;;;;;;5021148;28;20535;-79
2022/11/02 02:19:36;;;;;;;31.97;11.37;;;10.50;99.90;;;;;;5054058;28;20589;-78
2022/11/02 02:22:24;;;;;;;26.63;10.10;;;10.50;99.90;;;;;;5053360;28;20184;-79
2022/11/02 02:25:20;;;;;;;39.80;12.03;;;10.50;99.90;;;;;;5053059;28;20180;-79
2022/11/02 02:28:24;;;;;;;19.73;8.87;;;10.50;99.90;;;;;;5009727;28;20206;-79
2022/11/02 02:30:53;;;;;;;25.47;10.53;;;10.50;99.90;;;;;;5053300;28;20198;-78
2022/11/02 02:33:28;;;;;;;27.15;9.60;;;10.50;99.90;;;;;;5053729;28;20251;-79
2022/11/02 02:36:21;;;;;;;22.87;9.43;;;10.50;99.90;;;;;;5053223;28;20177;-79
2022/11/02 02:39:10;;;;;;;21.60;9.47;;;10.50;99.90;;;;;;5052830;28;20251;-80
2022/11/02 02:41:46;;;;;;;23.00;9.37;;;10.50;99.90;;;;;;5042046;28;20215;-79
2022/11/02 02:44:20;;;;;;;28.90;11.03;;;10.40;99.90;;;;;;5052877;28;20164;-79
2022/11/02 02:46:50;;;;;;;34.43;11.53;;;10.50;99.90;;;;;;5035265;28;20651;-79
2022/11/02 02:49:22;;;;;;;27.43;11.57;;;10.50;99.90;;;;;;5055073;28;20172;-79
2022/11/02 02:51:49;;;;;;;32.83;11.57;;;10.50;99.90;;;;;;5056769;28;20164;-79
2022/11/02 02:54:24;;;;;;;36.13;10.83;;;10.50;99.90;;;;;;5057181;28;20277;-79
2022/11/02 02:56:56;;;;;;;29.23;11.70;;;10.50;99.90;;;;;;5056517;28;20257;-79
2022/11/02 02:59:26;;;;;;;33.30;13.03;;;10.50;99.90;;;;;;5056969;28;20168;-79
2022/11/02 03:01:54;;;;;;;30.57;10.37;;;10.50;99.90;;;;;;5056634;28;20203;-79
2022/11/02 03:04:20;;;;;;;25.80;11.43;;;10.50;99.90;;;;;;5038820;28;20176;-80
2022/11/02 03:06:53;;;;;;;33.40;12.57;;;10.50;99.90;;;;;;5056401;28;20655;-79
2022/11/02 03:09:19;;;;;;;45.63;15.00;;;10.50;99.90;;;;;;5056770;28;20164;-79
2022/11/02 03:12:24;;;;;;;33.77;11.03;;;10.50;99.90;;;;;;5056648;28;20208;-79
2022/11/02 03:14:58;;;;;;;31.33;10.80;;;10.50;99.90;;;;;;5018037;28;20214;-79
2022/11/02 03:17:55;;;;;;;29.33;11.67;;;10.50;99.90;;;;;;5056372;28;20179;-79
2022/11/02 03:20:57;;;;;;;39.27;13.47;;;10.60;99.90;;;;;;5056157;28;20200;-79
2022/11/02 03:23:44;;;;;;;28.93;9.87;;;10.60;99.90;;;;;;5056423;28;20640;-79
2022/11/02 03:26:21;;;;;;;27.20;10.90;;;10.50;99.90;;;;;;5038387;28;20183;-79
2022/11/02 03:29:15;;;;;;;24.87;11.27;;;10.60;99.90;;;;;;5055927;28;20655;-79
2022/11/02 03:31:55;;;;;;;26.07;10.93;;;10.60;99.90;;;;;;5056360;28;20230;-79
2022/11/02 03:34:31;;;;;;;29.00;10.73;;;10.50;99.90;;;;;;5056389;28;20255;-80
2022/11/02 03:37:21;;;;;;;25.63;11.47;;;10.50;99.90;;;;;;5055855;28;20160;-79
2022/11/02 03:39:57;;;;;;;30.13;11.27;;;10.60;99.90;;;;;;5056024;28;20172;-79
2022/11/02 03:42:25;;;;;;;31.57;10.60;;;10.50;99.90;;;;;;5056337;28;20156;-79
2022/11/02 03:44:59;;;;;;;28.90;10.50;;;10.50;99.90;;;;;;5038466;28;20594;-79
2022/11/02 03:47:29;;;;;;;31.33;11.50;;;10.40;99.90;;;;;;5056211;28;20198;-79
2022/11/02 03:49:58;;;;;;;30.30;13.20;;;10.50;99.90;;;;;;5055855;28;20210;-79
2022/11/02 03:52:29;;;;;;;38.70;12.97;;;10.50;99.90;;;;;;5055914;28;20172;-78
2022/11/02 03:55:02;;;;;;;31.57;13.43;;;10.50;99.90;;;;;;5055389;28;20176;-78
2022/11/02 03:57:38;;;;;;;26.37;11.00;;;10.50;99.90;;;;;;5037917;28;20200;-78
2022/11/02 04:00:15;;;;;;;24.47;11.03;;;10.60;99.90;;;;;;5055203;28;20247;-79
2022/11/02 04:02:44;;;;;;;26.70;9.93;;;10.60;99.90;;;;;;5056041;28;20183;-79
2022/11/02 04:05:10;;;;;;;30.02;11.40;;;10.60;99.90;;;;;;5055464;28;20227;-79
2022/11/02 04:10:23;;;;;;;32.63;12.15;;;10.60;99.90;;;;;;5055209;28;20198;-79
2022/11/02 04:15:33;;;;;;;41.00;10.77;;;10.60;99.90;;;;;;5055297;28;20222;-79
2022/11/02 04:20:47;;;;;;;25.13;10.00;;;10.60;99.90;;;;;;5055208;28;20292;-78
2022/11/02 04:25:57;;;;;;;20.97;9.03;;;10.60;99.90;;;;;;5055064;28;20226;-78
2022/11/02 04:28:23;;;;;;;30.00;10.83;;;10.70;99.90;;;;;;5055043;28;20184;-79
2022/11/02 04:30:48;;;;;;;24.17;10.10;;;10.60;99.90;;;;;;5054765;28;20188;-79
2022/11/02 04:33:32;;;;;;;20.53;9.20;;;10.70;99.90;;;;;;5036726;28;20184;-78
2022/11/02 04:36:02;;;;;;;24.75;10.00;;;10.60;99.90;;;;;;5054637;28;20248;-79
2022/11/02 04:38:41;;;;;;;29.43;9.93;;;10.70;99.90;;;;;;5053013;28;20179;-80
2022/11/02 04:43:56;;;;;;;34.70;10.93;;;10.70;99.90;;;;;;5054275;28;20186;-81
2022/11/02 04:46:24;;;;;;;24.27;9.60;;;10.70;99.90;;;;;;5053946;28;20252;-80
2022/11/02 04:48:50;;;;;;;40.43;10.07;;;10.70;99.90;;;;;;5054030;28;20184;-80
2022/11/02 04:51:16;;;;;;;27.53;9.43;;;10.70;99.90;;;;;;5053965;28;20205;-80
2022/11/02 04:53:42;;;;;;;26.83;9.67;;;10.70;99.90;;;;;;5053893;28;20255;-81
2022/11/02 04:56:08;;;;;;;28.03;10.50;;;10.80;99.90;;;;;;5053345;28;20552;-78
2022/11/02 04:58:34;;;;;;;30.37;11.53;;;10.70;99.90;;;;;;5054182;28;20245;-78
2022/11/02 05:01:08;;;;;;;32.92;10.73;;;10.80;99.90;;;;;;5053966;28;20215;-79
2022/11/02 05:03:34;;;;;;;23.27;9.70;;;10.80;99.90;;;;;;5053701;28;20195;-79
2022/11/02 05:06:00;;;;;;;30.00;9.40;;;10.80;99.90;;;;;;5035862;28;20275;-79
2022/11/02 05:08:26;;;;;;;25.43;10.53;;;10.70;99.90;;;;;;5053732;28;20183;-79
2022/11/02 05:10:56;;;;;;;28.40;11.27;;;10.80;99.90;;;;;;5052847;28;20547;-79
2022/11/02 05:13:22;;;;;;;23.00;10.30;;;10.80;99.90;;;;;;5053340;28;20203;-79
2022/11/02 05:15:48;;;;;;;39.73;12.93;;;10.80;99.90;;;;;;5053768;28;20211;-78
2022/11/02 05:18:14;;;;;;;25.90;9.53;;;10.80;99.90;;;;;;5053463;28;20205;-79
2022/11/02 05:20:40;;;;;;;30.13;10.27;;;10.80;99.90;;;;;;5035410;28;20212;-79
2022/11/02 05:23:06;;;;;;;23.50;9.97;;;10.80;99.90;;;;;;5019153;28;20647;-79
2022/11/02 05:25:32;;;;;;;29.03;11.13;;;10.80;99.90;;;;;;5035464;28;20184;-79
2022/11/02 05:27:58;;;;;;;33.87;10.47;;;10.90;99.90;;;;;;5052480;28;20635;-79
2022/11/02 05:30:24;;;;;;;39.13;13.17;;;10.90;99.90;;;;;;5052610;28;20314;-79
2022/11/02 05:32:49;;;;;;;31.67;13.03;;;10.90;99.90;;;;;;5052898;28;20203;-79
2022/11/02 05:35:15;;;;;;;33.67;12.33;;;10.80;99.90;;;;;;5034899;28;20184;-79
2022/11/02 05:37:40;;;;;;;36.93;14.40;;;10.80;99.90;;;;;;5034405;28;20258;-80
2022/11/02 05:40:07;;;;;;;34.08;14.95;;;10.80;99.90;;;;;;5051520;28;20187;-80
2022/11/02 05:42:33;;;;;;;38.07;14.03;;;10.80;99.90;;;;;;5051414;28;20183;-81
2022/11/02 05:44:59;;;;;;;36.27;15.10;;;10.80;99.90;;;;;;5051528;28;20175;-80
2022/11/02 05:47:25;;;;;;;41.97;14.57;;;10.80;99.90;;;;;;5033137;28;20199;-81
2022/11/02 05:49:50;;;;;;;29.37;11.10;;;10.80;99.90;;;;;;5051817;28;20249;-81
2022/11/02 05:52:16;;;;;;;30.67;11.33;;;10.80;99.90;;;;;;5033722;28;20196;-81
2022/11/02 05:54:41;;;;;;;38.77;13.80;;;10.90;99.90;;;;;;5051693;28;20240;-81
2022/11/02 05:57:07;;;;;;;29.37;9.87;;;10.80;99.90;;;;;;5051767;28;20183;-80
2022/11/02 05:59:33;;;;;;;26.77;10.47;;;10.90;99.90;;;;;;5052042;28;20267;-81
2022/11/02 06:01:58;;;;;;;34.30;11.80;;;10.90;99.90;;;;;;5052970;28;20207;-81
2022/11/02 06:04:24;;;;;;;36.33;13.13;;;10.90;99.90;;;;;;5052545;28;20242;-81
2022/11/02 06:06:50;;;;;;;30.57;11.50;;;10.90;99.90;;;;;;5052683;28;20180;-80
2022/11/02 06:09:15;;;;;;;40.40;10.32;;;10.90;99.90;;;;;;5052448;28;20267;-81
2022/11/02 06:11:41;;;;;;;41.63;12.17;;;10.90;99.90;;;;;;5052236;28;20192;-80
2022/11/02 06:14:06;;;;;;;30.90;10.97;;;10.90;99.90;;;;;;5052625;28;20231;-80
2022/11/02 06:16:32;;;;;;;24.10;10.10;;;10.90;99.90;;;;;;5019141;28;20183;-80
2022/11/02 06:18:58;;;;;;;34.53;11.07;;;10.90;99.90;;;;;;5053515;28;20186;-81
2022/11/02 06:21:24;;;;;;;24.40;10.43;;;10.90;99.90;;;;;;5035361;28;20215;-81
2022/11/02 06:23:50;;;;;;;32.35;10.70;;;11.00;99.90;;;;;;5040454;28;20524;-80
2022/11/02 06:26:15;;;;;;;26.23;9.90;;;11.00;99.90;;;;;;5059458;28;20190;-80
2022/11/02 06:28:41;;;;;;;28.40;9.30;;;11.00;99.90;;;;;;5059507;28;20613;-80
2022/11/02 06:31:07;;;;;;;24.00;9.37;;;11.00;99.90;;;;;;5059553;28;20179;-80
2022/11/02 06:33:33;;;;;;;26.90;10.07;;;11.00;99.90;;;;;;5059901;28;20559;-79
2022/11/02 06:35:59;;;;;;;23.10;10.20;;;11.00;99.90;;;;;;5041689;28;20180;-81
2022/11/02 06:38:24;;;;;;;27.05;10.02;;;11.00;99.90;;;;;;5058958;28;20267;-81
2022/11/02 06:41:02;;;;;;;24.73;8.67;;;11.00;99.90;;;;;;5059543;28;20294;-81
2022/11/02 06:43:28;;;;;;;18.80;8.80;;;11.10;99.90;;;;;;5059228;28;20164;-81
2022/11/02 06:45:57;;;;;;;28.13;9.07;;;11.00;99.90;;;;;;5059665;28;20187;-80
2022/11/02 06:48:25;;;;;;;34.33;11.50;;;11.00;99.90;;;;;;5041335;28;20187;-81
2022/11/02 06:50:50;;;;;;;26.43;9.83;;;11.00;99.90;;;;;;5059638;28;20233;-79
2022/11/02 06:53:17;;;;;;;22.10;9.18;;;11.00;99.90;;;;;;5059595;28;20239;-81
2022/11/02 06:55:43;;;;;;;32.77;9.50;;;11.00;99.90;;;;;;5059635;28;20186;-80
2022/11/02 06:58:09;;;;;;;29.33;10.50;;;;;;;;;;5059538;28;20262;-80
2022/11/02 07:00:35;;;;;;;28.33;10.77;;;11.00;99.90;;;;;;5041810;28;20204;-81
2022/11/02 07:03:03;;;;;;;31.80;10.55;;;11.10;99.90;;;;;;5059616;28;20184;-81
2022/11/02 07:05:29;;;;;;;26.50;9.80;;;11.10;99.90;;;;;;5059173;28;20168;-81
2022/11/02 07:07:55;;;;;;;38.78;9.98;;;11.10;99.90;;;;;;5059186;28;20175;-81
2022/11/02 07:10:22;;;;;;;35.90;13.00;;;11.10;99.90;;;;;;5025168;28;20191;-79
2022/11/02 07:12:51;;;;;;;26.48;9.43;;;11.20;99.90;;;;;;5059207;28;20182;-80
2022/11/02 07:15:17;;;;;;;30.80;9.90;;;11.10;99.90;;;;;;5059192;28;20175;-81
2022/11/02 07:17:42;;;;;;;38.20;13.10;;;11.20;99.90;;;;;;5041071;28;20180;-80
2022/11/02 07:20:11;;;;;;;27.50;9.80;;;11.20;99.90;;;;;;5041597;28;20184;-81
2022/11/02 07:22:37;;;;;;;30.07;10.27;;;11.20;99.90;;;;;;5059399;28;20226;-81
2022/11/02 07:25:03;;;;;;;32.75;11.10;;;11.20;99.90;;;;;;5041340;28;20183;-81
2022/11/02 07:27:29;;;;;;;35.05;12.50;;;11.30;99.90;;;;;;5059387;28;20218;-81
2022/11/02 07:29:54;;;;;;;41.25;12.18;;;11.30;99.90;;;;;;5041496;28;20592;-81
2022/11/02 07:32:20;;;;;;;43.97;12.25;;;11.30;99.90;;;;;;5058808;28;20193;-80
2022/11/02 07:34:46;;;;;;;44.72;13.63;;;11.30;99.90;;;;;;5038371;28;20207;-80
2022/11/02 07:37:12;;;;;;;41.72;12.93;;;11.30;99.90;;;;;;5055948;28;20180;-81
2022/11/02 07:39:37;;;;;;;32.65;12.07;;;11.40;99.90;;;;;;5038200;28;20702;-81
2022/11/02 07:42:03;;;;;;;31.73;12.65;;;11.40;99.90;;;;;;5055980;28;20207;-81
2022/11/02 07:44:29;;;;;;;31.23;12.95;;;11.50;99.90;;;;;;5056022;28;20189;-81
2022/11/02 07:46:55;;;;;;;32.30;12.95;;;11.50;99.90;;;;;;5056075;28;20267;-80
2022/11/02 07:49:21;;;;;;;37.10;11.60;;;11.50;99.90;;;;;;5056151;28;20167;-81
2022/11/02 07:51:47;;;;;;;33.13;11.02;;;11.50;99.90;;;;;;5055492;28;20195;-81
2022/11/02 07:54:13;;;;;;;36.70;12.52;;;11.50;99.90;;;;;;5038136;28;20242;-81
2022/11/02 07:56:38;;;;;;;36.63;13.25;;;11.60;99.90;;;;;;5039552;28;20557;-81
2022/11/02 07:59:04;;;;;;;42.95;11.95;;;11.50;99.90;;;;;;5074399;28;20156;-81
2022/11/02 08:01:30;;;;;;;29.65;10.13;;;11.60;99.90;;;;;;5077469;28;20219;-80
2022/11/02 08:03:56;;;;;;;30.83;10.98;;;11.60;99.90;;;;;;5078675;28;20164;-81
2022/11/02 08:06:22;;;;;;;32.33;11.18;;;11.60;99.90;;;;;;5074443;28;20176;-78
2022/11/02 08:08:47;;;;;;;34.33;12.10;;;11.70;99.90;;;;;;5056406;28;20659;-80
2022/11/02 08:11:13;;;;;;;36.67;12.43;;;11.80;99.90;;;;;;5038910;28;20633;-80
2022/11/02 08:13:39;;;;;;;29.52;10.85;;;11.80;99.90;;;;;;5073699;28;20202;-81
2022/11/02 08:16:05;;;;;;;30.17;10.25;;;11.80;99.90;;;;;;5072444;28;20188;-80
2022/11/02 08:18:31;;;;;;;26.67;10.63;;;11.80;99.90;;;;;;5074922;28;20184;-80
2022/11/02 08:20:58;;;;;;;29.08;10.80;;;11.90;99.90;;;;;;5068503;28;20211;-79
2022/11/02 08:23:25;;;;;;;32.72;11.27;;;11.90;99.90;;;;;;5063099;28;20184;-80
2022/11/02 08:25:52;;;;;;;40.30;10.68;;;11.90;99.90;;;;;;5058503;28;20172;-80
2022/11/02 08:28:23;;;;;;;27.60;10.00;;;11.90;99.90;;;;;;5056726;28;20195;-80
2022/11/02 08:30:49;;;;;;;29.67;12.05;;;12.00;99.90;;;;;;5056496;28;20172;-81
2022/11/02 08:33:17;;;;;;;24.08;10.98;;;12.00;99.90;;;;;;5038535;28;20644;-80
2022/11/02 08:35:44;;;;;;;28.33;10.40;;;12.10;99.90;;;;;;5055042;28;20262;-81
2022/11/02 08:38:10;;;;;;;36.65;10.52;;;12.00;99.90;;;;;;5056024;28;20172;-81
2022/11/02 08:40:36;;;;;;;27.70;12.02;;;12.00;99.90;;;;;;5037151;28;20635;-81
2022/11/02 08:43:08;;;;;;;27.00;9.55;;;12.10;99.90;;;;;;5054910;28;20180;-80
2022/11/02 08:45:35;;;;;;;23.20;9.55;;;12.10;99.90;;;;;;5054486;28;20164;-80
2022/11/02 08:48:01;;;;;;;25.27;9.82;;;12.10;99.90;;;;;;5036561;28;20237;-81
2022/11/02 08:50:27;;;;;;;27.98;10.18;;;12.10;99.90;;;;;;5054855;28;20262;-81
2022/11/02 08:52:53;;;;;;;32.97;9.63;;;12.10;99.90;;;;;;5020421;28;20677;-81
2022/11/02 08:55:19;;;;;;;25.40;10.48;;;12.10;99.90;;;;;;5036439;28;20183;-81
2022/11/02 08:57:50;;;;;;;21.63;9.07;;;12.10;99.90;;;;;;5054597;28;20539;-81
2022/11/02 09:00:18;;;;;;;26.05;10.95;;;12.20;99.90;;;;;;5054804;28;20176;-81
2022/11/02 09:02:56;;;;;;;17.73;9.70;;;12.20;99.90;;;;;;5054490;28;20176;-81
2022/11/02 09:05:22;;;;;;;24.30;8.95;;;12.20;99.90;;;;;;5054426;28;20625;-81
2022/11/02 09:07:47;;;;;;;28.60;10.70;;;12.20;99.90;;;;;;5036639;28;20178;-81
2022/11/02 09:10:13;;;;;;;23.27;10.52;;;12.20;99.90;;;;;;5054724;28;20176;-81
2022/11/02 09:12:39;;;;;;;25.48;7.97;;;12.30;99.90;;;;;;5054448;28;20633;-81
2022/11/02 09:15:05;;;;;;;28.52;9.32;;;12.30;99.90;;;;;;5054004;28;20271;-81
2022/11/02 09:17:30;;;;;;;23.65;9.63;;;12.40;99.90;;;;;;5054313;28;20188;-79
2022/11/02 09:19:56;;;;;;;28.63;10.60;;;12.30;99.90;;;;;;5054119;28;20182;-80
2022/11/02 09:22:21;;;;;;;26.60;9.38;;;12.40;99.90;;;;;;5054094;28;20215;-80
2022/11/02 09:24:47;;;;;;;28.55;8.70;;;12.40;99.90;;;;;;5036068;28;20233;-81
2022/11/02 09:27:13;;;;;;;28.38;10.15;;;12.40;99.90;;;;;;5019823;28;20184;-80
2022/11/02 09:29:38;;;;;;;20.05;8.00;;;12.40;99.90;;;;;;5053831;28;20175;-80
2022/11/02 09:32:04;;;;;;;28.00;10.27;;;12.50;99.90;;;;;;5053650;28;20201;-80
2022/11/02 09:34:30;;;;;;;22.48;9.57;;;12.50;99.90;;;;;;5053983;28;20624;-80
2022/11/02 09:36:55;;;;;;;31.83;11.32;;;12.60;99.90;;;;;;5035862;28;20649;-81
2022/11/02 09:39:23;;;;;;;21.25;9.25;;;12.60;99.90;;;;;;5019063;28;20175;-81
2022/11/02 09:42:26;;;;;;;30.17;10.50;;;12.60;99.90;;;;;;5035092;28;20239;-80
2022/11/02 09:45:01;;;;;;;28.38;11.23;;;12.60;99.90;;;;;;5001210;28;20660;-80
2022/11/02 09:47:30;;;;;;;38.05;11.02;;;12.60;99.90;;;;;;5052926;28;20179;-81
2022/11/02 09:49:59;;;;;;;31.10;11.20;;;12.70;99.90;;;;;;5034970;28;20176;-81
2022/11/02 09:52:35;;;;;;;31.58;12.52;;;12.70;99.90;;;;;;5052772;28;20179;-81
2022/11/02 09:55:04;;;;;;;40.00;14.57;;;12.70;99.90;;;;;;5052555;28;20159;-81
2022/11/02 09:57:32;;;;;;;46.90;14.25;;;12.70;99.90;;;;;;5052479;28;20172;-81
2022/11/02 09:59:58;;;;;;;39.67;14.00;;;12.70;99.90;;;;;;5052724;28;20177;-81
2022/11/02 10:02:54;;;;;;;34.78;12.82;;;12.70;99.90;;;;;;5052866;28;20687;-81
2022/11/02 10:05:25;;;;;;;34.60;12.10;;;12.70;99.90;;;;;;5053016;28;20164;-81
2022/11/02 10:08:06;;;;;;;37.28;12.98;;;12.80;99.90;;;;;;5052686;28;20190;-82
2022/11/02 10:10:40;;;;;;;35.08;13.70;;;12.80;99.90;;;;;;5053099;28;20362;-81
2022/11/02 10:13:33;;;;;;;36.17;13.15;;;12.90;99.90;;;;;;5034551;28;20761;-81
2022/11/02 10:16:11;;;;;;;23.75;10.68;;;12.90;99.90;;;;;;5052525;28;20222;-81
2022/11/02 10:18:39;;;;;;;35.10;12.93;;;13.00;99.90;;;;;;5052659;28;20249;-81
2022/11/02 10:21:12;;;;;;;27.35;10.85;;;13.00;99.90;;;;;;5051958;28;20195;-82
2022/11/02 10:23:46;;;;;;;18.95;9.77;;;13.10;99.90;;;;;;5034872;28;20183;-81
2022/11/02 10:26:20;;;;;;;35.88;11.25;;;13.10;99.90;;;;;;5052537;28;20641;-81
2022/11/02 10:28:49;;;;;;;26.75;11.43;;;13.20;99.90;;;;;;5052974;28;20167;-81
2022/11/02 10:31:29;;;;;;;28.75;12.93;;;13.30;99.90;;;;;;5052189;28;20175;-81
2022/11/02 10:33:56;;;;;;;27.88;11.50;;;13.40;99.90;;;;;;5034622;28;20628;-81
2022/11/02 10:36:42;;;;;;;27.65;11.80;;;13.50;99.90;;;;;;5034661;28;20237;-80
2022/11/02 10:39:26;;;;;;;21.10;10.63;;;13.60;99.90;;;;;;5052431;28;20164;-80
2022/11/02 10:42:30;;;;;;;30.20;12.43;;;13.70;99.90;;;;;;5052453;28;20203;-80
2022/11/02 10:45:40;;;;;;;21.05;10.43;;;13.90;99.90;;;;;;4970235;28;20203;-80
2022/11/02 10:48:25;;;;;;;22.30;10.05;;;13.90;99.90;;;;;;5052313;28;20188;-81
2022/11/02 10:51:00;;;;;;;31.02;11.43;;;13.90;99.90;;;;;;5052424;28;20203;-82
2022/11/02 10:53:25;;;;;;;18.70;9.75;;;13.90;99.90;;;;;;5052767;28;20595;-80
2022/11/02 10:56:06;;;;;;;36.05;12.38;;;13.90;99.90;;;;;;5052875;28;20183;-80
2022/11/02 10:58:35;;;;;;;21.05;9.85;;;13.90;99.90;;;;;;5052926;28;20160;-80
2022/11/02 11:01:09;;;;;;;21.92;9.65;;;14.00;99.90;;;;;;5036087;28;20254;-80
2022/11/02 11:03:55;;;;;;;26.05;11.23;;;14.00;99.90;;;;;;5052236;28;20200;-81
2022/11/02 11:06:36;;;;;;;37.28;13.75;;;14.10;99.90;;;;;;5053038;28;20175;-81
2022/11/02 11:09:06;;;;;;;21.77;11.48;;;14.20;99.90;;;;;;5052991;28;20164;-81
2022/11/02 11:11:35;;;;;;;33.47;11.75;;;14.30;99.90;;;;;;5056858;28;20226;-80
2022/11/02 11:14:16;;;;;;;21.42;10.70;;;14.30;99.90;;;;;;5056540;28;20655;-81
2022/11/02 11:16:44;;;;;;;25.08;11.57;;;14.30;99.90;;;;;;5056744;28;20170;-80
2022/11/02 11:19:38;;;;;;;18.92;10.25;;;14.30;99.90;;;;;;5056555;28;20222;-80
2022/11/02 11:22:23;;;;;;;22.08;10.85;;;14.40;99.90;;;;;;5056024;28;20195;-82
2022/11/02 11:24:49;;;;;;;20.73;9.70;;;14.40;99.90;;;;;;5056409;28;20180;-80
2022/11/02 11:27:22;;;;;;;18.85;9.57;;;14.50;99.90;;;;;;5038148;28;20281;-81
2022/11/02 11:29:53;;;;;;;25.30;10.30;;;14.40;99.90;;;;;;5056178;28;20237;-80
2022/11/02 11:32:27;;;;;;;21.77;10.02;;;14.40;99.90;;;;;;5055772;28;20180;-80
2022/11/02 11:35:06;;;;;;;19.52;10.02;;;14.50;99.90;;;;;;5056039;28;20160;-80
2022/11/02 11:37:32;;;;;;;22.83;9.90;;;14.40;99.90;;;;;;5056289;28;20265;-81
2022/11/02 11:40:04;;;;;;;18.27;9.77;;;14.40;99.90;;;;;;5057522;28;20219;-80
2022/11/02 11:42:34;;;;;;;18.63;8.48;;;14.40;99.90;;;;;;5057611;28;20172;-81
2022/11/02 11:45:06;;;;;;;16.08;9.85;;;14.50;99.90;;;;;;5058288;28;20167;-80
2022/11/02 11:47:39;;;;;;;27.50;10.32;;;14.60;99.90;;;;;;5059039;28;20601;-80
2022/11/02 11:50:14;;;;;;;13.02;7.18;;;15.00;99.90;;;;;;5057009;28;20195;-82
2022/11/02 11:52:40;;;;;;;17.27;8.27;;;15.40;99.90;;;;;;5055895;28;20172;-82
2022/11/02 11:55:26;;;;;;;17.00;7.75;;;15.60;99.90;;;;;;5055892;28;20175;-80
2022/11/02 11:58:16;;;;;;;11.98;6.82;;;15.60;99.90;;;;;;5055957;28;20180;-80
2022/11/02 12:00:41;;;;;;;15.02;7.72;;;15.60;99.90;;;;;;5038262;28;20558;-80
2022/11/02 12:03:11;;;;;;;14.02;7.72;;;15.60;99.90;;;;;;5055771;28;20187;-79
2022/11/02 12:05:49;;;;;;;16.77;8.75;;;15.70;99.90;;;;;;5055486;28;20176;-78
2022/11/02 12:08:24;;;;;;;12.25;6.47;;;15.70;99.90;;;;;;5055539;28;20527;-79
2022/11/02 12:11:07;;;;;;;13.63;7.68;;;16.00;99.90;;;;;;5055464;28;20164;-80
2022/11/02 12:13:39;;;;;;;15.45;8.25;;;15.80;99.90;;;;;;5055017;28;20182;-79
2022/11/02 12:16:39;;;;;;;18.88;9.65;;;15.60;99.90;;;;;;5037813;28;20184;-80
2022/11/02 12:19:14;;;;;;;20.92;8.93;;;15.30;99.90;;;;;;5055229;28;20172;-81
2022/11/02 12:22:05;;;;;;;12.40;6.43;;;15.10;99.90;;;;;;5055105;28;20199;-80
2022/11/02 12:24:58;;;;;;;16.10;6.70;;;14.80;99.90;;;;;;5054994;28;20200;-80
2022/11/02 12:27:29;;;;;;;12.18;6.82;;;14.70;99.90;;;;;;5037390;28;20258;-81
2022/11/02 12:30:03;;;;;;;15.05;7.00;;;14.90;99.90;;;;;;5055419;28;20168;-80
2022/11/02 12:32:40;;;;;;;13.48;7.18;;;15.20;99.90;;;;;;5055177;28;20207;-81
2022/11/02 12:35:18;;;;;;;11.93;6.25;;;15.50;99.90;;;;;;5055027;28;20176;-81
2022/11/02 12:38:06;;;;;;;12.00;6.78;;;15.70;99.90;;;;;;5055349;28;20160;-80
2022/11/02 12:41:02;;;;;;;13.75;5.88;;;16.00;99.90;;;;;;5037121;28;20238;-79
2022/11/02 12:43:43;;;;;;;10.80;6.07;;;16.40;99.90;;;;;;5054725;28;20323;-80
2022/11/02 12:46:14;;;;;;;13.13;5.93;;;16.40;99.90;;;;;;5037424;28;20180;-79
2022/11/02 12:49:07;;;;;;;8.05;5.20;;;16.30;99.90;;;;;;5054909;28;20163;-80
2022/11/02 12:51:50;;;;;;;9.32;5.03;;;16.30;99.90;;;;;;5036938;28;20187;-79
2022/11/02 12:54:46;;;;;;;15.07;6.35;;;16.20;99.90;;;;;;5037120;28;20231;-81
2022/11/02 12:57:16;;;;;;;9.57;5.95;;;16.20;99.90;;;;;;5036186;28;20187;-78
2022/11/02 12:59:43;;;;;;;19.20;5.97;;;16.70;99.90;;;;;;5054575;28;20194;-79
2022/11/02 13:02:25;;;;;;;9.50;5.05;;;17.00;99.90;;;;;;5054302;28;20207;-79
2022/11/02 13:05:02;;;;;;;10.52;5.63;;;17.30;99.90;;;;;;5054632;28;20617;-80
2022/11/02 13:07:57;;;;;;;10.52;4.68;;;17.80;99.90;;;;;;5054533;28;20152;-80